McKinney's Hourly Summary for Tuesday, May 15, 2018
Hour Temp
(f)
RH
(%)
Solar Rad.
(MJ/m2)
Rainfall
(in)
Wind
(mph)
5/15/2018 12:00 AM 77 71 0 0 5.49
5/15/2018 1:00 AM 76 72 0 0 5.25
5/15/2018 2:00 AM 76 74 0 0 5.48
5/15/2018 3:00 AM 75 74 0 0 6.2
5/15/2018 4:00 AM 75 74 0 0 1.72
5/15/2018 5:00 AM 73 76 0 0 1.05
5/15/2018 6:00 AM 72 82 0 0 2.45
5/15/2018 7:00 AM 71 92 0.01 0.04 1.72
5/15/2018 8:00 AM 70 98 0.12 0 2.91
5/15/2018 9:00 AM 71 97 0.31 0 2.54
5/15/2018 10:00 AM 70 95 0.52 0 4.6
5/15/2018 11:00 AM 72 84 1.1 0 6.5
5/15/2018 12:00 PM 75 68 1.87 0 8.57
5/15/2018 1:00 PM 78 59 1.81 0 7.35
5/15/2018 2:00 PM 81 52 2.3 0 6.17
5/15/2018 3:00 PM 84 48 3.1 0 5.75
5/15/2018 4:00 PM 85 45 2.54 0 5.44
5/15/2018 5:00 PM 86 44 1.7 0 4.34
5/15/2018 6:00 PM 83 47 0.93 0 4.68
5/15/2018 7:00 PM 75 60 0.29 0 2.75
5/15/2018 8:00 PM 74 67 0.13 0 4.38
5/15/2018 9:00 PM 72 68 0.01 0 4.33
5/15/2018 10:00 PM 70 71 0 0 1.09
5/15/2018 11:00 PM 70 71 0 0 1.05
Data Summary 75 70 16.74 0.04 4.24